Kahului, HI

7:42 PM HST on February 28, 2015 (GMT -1000)
Kehalani | Change Station
CLOSE
Current Station
Personal Weather Station
Location: Wailuku, HI
Elevation: 358 ft
Nearby Weather Stations
Active Advisory: Areal Flood Advisory

Elev 358 ft 20.87 °N, 156.50 °W | Updated 6 minutes ago

Mostly Cloudy
Mostly Cloudy
71.1 °F
Feels Like 71 °F
N
6.3
Wind Variable Wind from NNW

Today
High -- | Low -- °F
--% Chance of Precip.
Yesterday
High -- | Low -- °F
Precip. -- in
6:46 AM 6:30 PM
Waxing Gibbous, 82% visible
Pressure 29.96 in
Visibility 10.0 miles
Clouds Few 3000 ft
Mostly Cloudy 6000 ft
Heat Index 71 °F
Dew Point 65 °F
Humidity 81%
Rainfall 2.09 in
Snow Depth Not available.
UV 0 out of 12
Pollen Not available.
Air Quality Not available.
Flu Activity Not available.
METAR PHOG 010454Z 05004KT 10SM FEW030 BKN060 23/19 A2995 RMK AO2 SLP146 T02280194 $

More Conditions Fewer Conditions

Pressure 29.96 in
Visibility 10.0 miles
Clouds Few 3000 ft
Mostly Cloudy 6000 ft
Heat Index 71 °F
Dew Point 65 °F
Humidity 81%
Rainfall 2.09 in
Snow Depth Not available.
UV 0 out of 12
Pollen Not available.
Air Quality Not available.
Flu Activity Not available.
METAR PHOG 010454Z 05004KT 10SM FEW030 BKN060 23/19 A2995 RMK AO2 SLP146 T02280194 $

More Conditions Fewer Conditions

10-Day Weather Forecast

Almanac

Astronomy

Feb. 28, 2015 Rise Set
Actual Time
Civil Twilight
Nautical Twilight
Astronomical Twilight
Moon
Length of Visible Light
Length of Day
Tomorrow will be .
, % of the Moon is Illuminated

Today's Extremes

State Highs State Lows

Community

WunderPhotos

Upload Photos

1,801,336 photos uploaded!

WunderBlogs® & News

Nearby

Air Quality

  Air Quality AQ Index Pollutant
Not available.

Snow Depth

Station Depth Elevation

Earthquake Activity

City Distance Mag. Time & Date
Minimum magnitude displayed is 2.5.

Coastal Water Temperatures

Place Temperature

Nearby Weather Stations

Areal Flood Advisory
Statement as of 7:02 PM HST on February 28, 2015

The National Weather Service in Honolulu has issued a

* Flood Advisory for the island of Maui in Maui County

* until 1000 PM HST

* at 654 PM HST... radar showed heavy showers falling at rates of
more than 2 inches per hour along windward west Maui and the west
Maui mountains.

* Other locations in the advisory include but are not limited to
Kahakuloa... napili... Kapalua... Honolua and Honokohau.

Precautionary/preparedness actions...

Stay away from streams... drainage ditches and low lying areas prone
to flooding.

Rainfall and runoff will also cause hazardous driving conditions due
to ponding... reduced visibility and poor braking action.

Do not cross fast flowing or rising water in your vehicle or on foot.
Turn around... Don/T drown.


This advisory may need to be extended beyond 1000 PM HST if heavy
rain persists.

Lat... Lon 2107 15667 2101 15645 2086 15654 2096 15671